Time;durP1;ratioP1;P1;durP2;ratioP2;P2;SDS_P1;SDS_P2;PMS_P1;PMS_P2;Temp;Humidity;BMP_temperature;BMP_pressure;BME280_temperature;BME280_humidity;BME280_pressure;Samples;Min_cycle;Max_cycle;Signal;HPM_P1;HPM_P2
2023/01/25 00:01:21;;;;;;;37.57;17.30;;;2.00;99.90;;;;;;7781576;28;20215;-89
2023/01/25 00:05:07;;;;;;;35.67;17.00;;;2.00;99.90;;;;;;7786632;28;20185;-88
2023/01/25 00:08:52;;;;;;;40.27;17.13;;;1.90;99.90;;;;;;7779834;28;20186;-88
2023/01/25 00:12:38;;;;;;;38.80;15.33;;;1.90;99.90;;;;;;7785042;28;20218;-89
2023/01/25 00:16:23;;;;;;;33.50;14.80;;;1.90;99.90;;;;;;7784948;28;20183;-89
2023/01/25 00:20:09;;;;;;;36.60;15.40;;;1.90;99.90;;;;;;7783457;28;20195;-89
2023/01/25 00:23:55;;;;;;;31.70;14.77;;;1.90;99.90;;;;;;7786917;28;20198;-89
2023/01/25 00:27:41;;;;;;;33.60;15.90;;;1.90;99.90;;;;;;7799419;28;20186;-87
2023/01/25 00:36:00;;;;;;;31.23;14.80;;;1.90;99.90;;;;;;7774800;28;20195;-89
2023/01/25 00:39:45;;;;;;;34.70;15.60;;;1.90;99.90;;;;;;7783227;28;20253;-87
2023/01/25 00:43:31;;;;;;;33.17;14.83;;;1.90;99.90;;;;;;7782181;28;20223;-88
2023/01/25 00:47:17;;;;;;;29.97;13.10;;;1.90;99.90;;;;;;7781878;28;20270;-88
2023/01/25 00:51:03;;;;;;;31.80;14.07;;;1.90;99.90;;;;;;7810828;28;20218;-87
2023/01/25 00:54:48;;;;;;;35.23;16.40;;;1.90;99.90;;;;;;7766935;28;20247;-87
2023/01/25 00:58:34;;;;;;;36.17;16.30;;;1.90;99.90;;;;;;7762054;28;20191;-87
2023/01/25 01:02:22;;;;;;;30.97;15.10;;;1.90;99.90;;;;;;7781678;28;20199;-87
2023/01/25 01:06:10;;;;;;;38.87;16.83;;;1.80;99.90;;;;;;7815690;28;20178;-88
2023/01/25 01:09:56;;;;;;;34.83;15.97;;;1.90;99.90;;;;;;7819127;28;20198;-90
2023/01/25 01:23:05;;;;;;;33.70;16.27;;;1.90;99.90;;;;;;7787602;28;20191;-88
2023/01/25 01:26:51;;;;;;;33.60;14.70;;;1.90;99.90;;;;;;7779912;28;20284;-89
2023/01/25 01:30:38;;;;;;;29.53;14.60;;;2.00;99.90;;;;;;7785245;28;20207;-88
2023/01/25 01:34:24;;;;;;;30.07;14.23;;;2.00;99.90;;;;;;7787823;28;20211;-88
2023/01/25 01:38:09;;;;;;;30.50;14.10;;;1.90;99.90;;;;;;7788522;28;20199;-88
2023/01/25 01:41:55;;;;;;;29.10;13.73;;;1.90;99.90;;;;;;7786319;28;20676;-87
2023/01/25 01:45:44;;;;;;;28.63;13.63;;;1.80;99.90;;;;;;7769578;28;20557;-87
2023/01/25 01:49:31;;;;;;;29.97;13.67;;;1.90;99.90;;;;;;7784907;28;20645;-89
2023/01/25 01:53:17;;;;;;;33.30;14.07;;;1.80;99.90;;;;;;7767902;28;20212;-88
2023/01/25 01:57:11;;;;;;;27.20;14.07;;;1.80;99.90;;;;;;7771202;28;20175;-88
2023/01/25 02:00:57;;;;;;;30.17;13.60;;;1.80;99.90;;;;;;7812261;23;20186;-89
2023/01/25 02:04:46;;;;;;;27.47;14.37;;;1.90;99.90;;;;;;7747491;28;20291;-91
2023/01/25 02:08:35;;;;;;;33.87;14.53;;;1.80;99.90;;;;;;7750089;28;20283;-89
2023/01/25 02:12:22;;;;;;;29.93;14.63;;;1.90;99.90;;;;;;7752482;28;20235;-88
2023/01/25 02:16:16;;;;;;;33.27;15.00;;;1.80;99.90;;;;;;7769271;28;20184;-89
2023/01/25 02:20:44;;;;;;;31.30;13.80;;;1.80;99.90;;;;;;7771064;28;20270;-88
2023/01/25 02:24:33;;;;;;;30.17;13.50;;;1.80;99.90;;;;;;7746505;28;20275;-89
2023/01/25 02:28:30;;;;;;;28.50;13.27;;;1.80;99.90;;;;;;7751089;28;20188;-89
2023/01/25 02:32:16;;;;;;;28.07;12.83;;;1.80;99.90;;;;;;7746815;28;20214;-89
2023/01/25 02:36:07;;;;;;;27.80;12.57;;;1.80;99.90;;;;;;7761715;28;20186;-89
2023/01/25 02:39:53;;;;;;;31.30;13.93;;;1.80;99.90;;;;;;7760914;28;20179;-89
2023/01/25 02:43:39;;;;;;;29.63;13.50;;;1.90;99.90;;;;;;7761382;28;20295;-89
2023/01/25 02:47:24;;;;;;;28.67;13.53;;;1.80;99.90;;;;;;7760478;28;20183;-89
2023/01/25 02:51:11;;;;;;;27.23;13.10;;;1.80;99.90;;;;;;7745907;28;20200;-89
2023/01/25 02:54:56;;;;;;;25.10;13.40;;;1.80;99.90;;;;;;7764976;28;20200;-89
2023/01/25 02:58:42;;;;;;;27.80;12.97;;;1.80;99.90;;;;;;7759669;28;20179;-89
2023/01/25 03:02:28;;;;;;;28.27;12.90;;;1.80;99.90;;;;;;7756288;28;20219;-89
2023/01/25 03:06:13;;;;;;;28.83;12.83;;;1.80;99.90;;;;;;7760226;28;20184;-89
2023/01/25 03:09:59;;;;;;;29.53;12.97;;;1.70;99.90;;;;;;7757446;28;20233;-89
2023/01/25 03:13:45;;;;;;;28.70;13.47;;;1.70;99.90;;;;;;7759602;28;20303;-89
2023/01/25 03:17:30;;;;;;;31.00;13.83;;;1.90;99.90;;;;;;7745410;28;20231;-89
2023/01/25 03:21:18;;;;;;;29.17;12.90;;;1.70;99.90;;;;;;7749080;28;20203;-89
2023/01/25 03:25:04;;;;;;;29.20;13.83;;;1.70;99.90;;;;;;7747446;28;20657;-89
2023/01/25 03:28:49;;;;;;;31.27;13.73;;;1.70;99.90;;;;;;7746823;28;20569;-89
2023/01/25 03:32:35;;;;;;;28.83;13.80;;;1.70;99.90;;;;;;7759751;28;20253;-90
2023/01/25 03:36:21;;;;;;;34.97;18.00;;;1.70;99.90;;;;;;7750068;28;20180;-90
2023/01/25 03:40:07;;;;;;;34.33;16.30;;;1.70;99.90;;;;;;7749804;28;20176;-90
2023/01/25 03:43:52;;;;;;;27.80;14.20;;;1.70;99.90;;;;;;7739111;28;20207;-90
2023/01/25 03:47:38;;;;;;;26.07;13.20;;;1.70;99.90;;;;;;7755579;28;20321;-90
2023/01/25 03:51:24;;;;;;;27.27;13.17;;;1.70;99.90;;;;;;7754542;28;20262;-90
2023/01/25 03:55:10;;;;;;;23.30;12.13;;;1.70;99.90;;;;;;7739384;28;20195;-90
2023/01/25 03:58:55;;;;;;;26.00;12.97;;;1.70;99.90;;;;;;7749376;28;20187;-89
2023/01/25 04:02:41;;;;;;;24.87;12.47;;;1.60;99.90;;;;;;7750547;28;20594;-90
2023/01/25 04:06:27;;;;;;;27.63;13.57;;;1.70;99.90;;;;;;7755569;28;20192;-90
2023/01/25 04:10:12;;;;;;;27.33;12.83;;;1.70;99.90;;;;;;7743339;28;20657;-90
2023/01/25 04:13:58;;;;;;;24.83;13.13;;;1.70;99.90;;;;;;7758610;28;20571;-90
2023/01/25 04:17:43;;;;;;;24.67;12.90;;;1.70;99.90;;;;;;7741877;28;20191;-90
2023/01/25 04:21:29;;;;;;;26.33;12.90;;;1.80;99.90;;;;;;7756332;28;20302;-90
2023/01/25 04:25:15;;;;;;;30.40;13.97;;;1.60;99.90;;;;;;7758525;28;20194;-90
2023/01/25 04:29:00;;;;;;;26.80;13.43;;;1.70;99.90;;;;;;7748191;28;20681;-90
2023/01/25 04:32:46;;;;;;;32.97;14.47;;;1.60;99.90;;;;;;7751545;28;20700;-90
2023/01/25 04:36:32;;;;;;;30.50;14.70;;;1.60;99.90;;;;;;7754453;28;20187;-90
2023/01/25 04:40:17;;;;;;;28.57;13.47;;;1.70;99.90;;;;;;7753933;28;20190;-90
2023/01/25 04:44:03;;;;;;;35.53;15.10;;;1.70;99.90;;;;;;7744656;28;20297;-91
2023/01/25 04:47:49;;;;;;;28.87;13.43;;;1.70;99.90;;;;;;7749387;28;20208;-90
2023/01/25 04:51:35;;;;;;;31.23;13.83;;;1.70;99.90;;;;;;7757710;28;20199;-90
2023/01/25 04:55:24;;;;;;;31.80;14.73;;;1.70;99.90;;;;;;7746146;28;20294;-90
2023/01/25 04:59:10;;;;;;;31.17;14.00;;;1.60;99.90;;;;;;7752259;28;20188;-90
2023/01/25 05:02:56;;;;;;;30.67;14.00;;;1.60;99.90;;;;;;7749993;28;20782;-90
2023/01/25 05:06:49;;;;;;;33.33;16.30;;;1.70;99.90;;;;;;7750543;28;20188;-90
2023/01/25 05:10:36;;;;;;;38.73;15.93;;;1.70;99.90;;;;;;7766094;28;20203;-90
2023/01/25 05:14:22;;;;;;;32.33;14.43;;;1.60;99.90;;;;;;7754574;28;20599;-90
2023/01/25 05:18:07;;;;;;;29.40;13.20;;;1.70;99.90;;;;;;7749519;28;20211;-90
2023/01/25 05:21:59;;;;;;;30.40;13.30;;;1.60;99.90;;;;;;7757495;28;20207;-90
2023/01/25 05:29:50;;;;;;;35.83;15.37;;;1.70;99.90;;;;;;7783532;28;20186;-90
2023/01/25 05:33:35;;;;;;;31.53;13.60;;;1.60;99.90;;;;;;7786634;28;20217;-89
2023/01/25 05:37:21;;;;;;;33.73;14.90;;;1.60;99.90;;;;;;7759161;28;20184;-89
2023/01/25 05:41:06;;;;;;;29.87;13.83;;;1.60;99.90;;;;;;7760408;28;20257;-89
2023/01/25 05:44:53;;;;;;;37.53;14.43;;;1.60;99.90;;;;;;7763113;28;20277;-89
2023/01/25 05:48:39;;;;;;;31.27;12.97;;;1.50;99.90;;;;;;7762820;28;20274;-89
2023/01/25 05:52:36;;;;;;;29.10;13.53;;;1.70;99.90;;;;;;7761129;28;20215;-89
2023/01/25 05:56:22;;;;;;;29.03;12.47;;;1.60;99.90;;;;;;7751853;28;20183;-88
2023/01/25 06:00:09;;;;;;;28.00;12.23;;;1.70;99.90;;;;;;7774951;28;20184;-89
2023/01/25 06:04:01;;;;;;;24.70;11.13;;;1.60;99.90;;;;;;7755817;28;20230;-89
2023/01/25 06:07:46;;;;;;;24.60;12.07;;;1.60;99.90;;;;;;7762055;28;20330;-87
2023/01/25 06:11:32;;;;;;;25.90;12.10;;;1.60;99.90;;;;;;7779867;28;20203;-89
2023/01/25 06:15:18;;;;;;;29.20;12.13;;;1.60;99.90;;;;;;7762448;28;20311;-89
2023/01/25 06:19:05;;;;;;;25.03;11.53;;;1.60;99.90;;;;;;7761835;28;20189;-88
2023/01/25 06:22:51;;;;;;;20.10;9.90;;;1.60;99.90;;;;;;7762820;28;20258;-89
2023/01/25 06:26:36;;;;;;;24.90;11.07;;;1.60;99.90;;;;;;7761414;28;20241;-88
2023/01/25 06:30:22;;;;;;;26.27;11.30;;;1.60;99.90;;;;;;7762071;28;20183;-88
2023/01/25 06:34:08;;;;;;;32.60;13.10;;;1.50;99.90;;;;;;7760328;28;20223;-88
2023/01/25 06:38:04;;;;;;;26.00;12.13;;;1.60;99.90;;;;;;7761146;28;20176;-89
2023/01/25 06:41:49;;;;;;;26.20;12.00;;;1.60;99.90;;;;;;7761687;28;20218;-89
2023/01/25 06:45:35;;;;;;;20.03;10.27;;;1.60;99.90;;;;;;7761164;28;20270;-88
2023/01/25 06:49:20;;;;;;;23.53;11.33;;;1.50;99.90;;;;;;7760808;28;20183;-88
2023/01/25 06:53:06;;;;;;;24.97;11.90;;;1.70;99.90;;;;;;7761290;28;20218;-88
2023/01/25 06:56:52;;;;;;;23.87;10.30;;;1.60;99.90;;;;;;7760638;28;20214;-88
2023/01/25 07:00:37;;;;;;;25.90;11.80;;;1.50;99.90;;;;;;7761169;28;20179;-88
2023/01/25 07:04:23;;;;;;;24.40;10.07;;;1.50;99.90;;;;;;7760542;28;20692;-88
2023/01/25 07:08:09;;;;;;;20.73;10.43;;;1.50;99.90;;;;;;7778125;28;20191;-88
2023/01/25 07:11:54;;;;;;;20.50;10.20;;;1.60;99.90;;;;;;7760965;28;20226;-88
2023/01/25 07:15:40;;;;;;;24.70;10.53;;;1.60;99.90;;;;;;7760161;28;20285;-88
2023/01/25 07:19:25;;;;;;;25.83;11.47;;;1.60;99.90;;;;;;7777381;28;20754;-89
2023/01/25 07:23:11;;;;;;;25.17;11.60;;;1.50;99.90;;;;;;7760524;28;20215;-89
2023/01/25 07:26:57;;;;;;;26.93;11.33;;;1.50;99.90;;;;;;7759665;28;20628;-89
2023/01/25 07:30:43;;;;;;;22.90;10.57;;;1.50;99.90;;;;;;7777674;28;20339;-89
2023/01/25 07:34:28;;;;;;;22.93;10.73;;;1.50;99.90;;;;;;7760074;28;20282;-88
2023/01/25 07:38:14;;;;;;;22.23;9.93;;;1.60;99.90;;;;;;7759776;28;20180;-89
2023/01/25 07:42:00;;;;;;;24.60;10.87;;;1.50;99.90;;;;;;7777535;28;20199;-88
2023/01/25 07:45:48;;;;;;;23.80;10.80;;;1.50;99.90;;;;;;7759252;28;20627;-89
2023/01/25 07:49:34;;;;;;;21.70;10.47;;;1.50;99.90;;;;;;7759856;28;20183;-88
2023/01/25 07:53:20;;;;;;;24.20;10.70;;;1.60;99.90;;;;;;7759838;28;20245;-88
2023/01/25 07:57:05;;;;;;;22.17;10.57;;;1.50;99.90;;;;;;7759255;28;20184;-89
2023/01/25 08:00:51;;;;;;;20.47;9.17;;;1.60;99.90;;;;;;7811805;23;20179;-87
2023/01/25 08:04:37;;;;;;;16.77;8.47;;;1.50;99.90;;;;;;7759967;28;20294;-87
2023/01/25 08:08:23;;;;;;;24.07;10.83;;;1.50;99.90;;;;;;7774101;28;20277;-87
2023/01/25 08:12:09;;;;;;;20.47;9.50;;;1.60;99.90;;;;;;7773298;28;20249;-87
2023/01/25 08:15:55;;;;;;;21.80;10.20;;;1.50;99.90;;;;;;7792083;23;20223;-88
2023/01/25 08:19:41;;;;;;;18.63;10.63;;;1.50;99.90;;;;;;7727915;28;20180;-87
2023/01/25 08:23:28;;;;;;;24.60;11.47;;;1.50;99.90;;;;;;7726300;28;20210;-88
2023/01/25 08:27:13;;;;;;;21.20;10.73;;;1.60;99.90;;;;;;7727387;28;20247;-87
2023/01/25 08:31:08;;;;;;;24.20;11.63;;;1.50;99.90;;;;;;7727603;28;20175;-88
2023/01/25 08:34:53;;;;;;;30.00;14.00;;;1.60;99.90;;;;;;7727455;28;20203;-86
2023/01/25 08:38:39;;;;;;;27.73;13.30;;;1.70;99.90;;;;;;7727422;28;20227;-88
2023/01/25 08:42:25;;;;;;;27.40;13.07;;;1.50;99.90;;;;;;7727865;28;20216;-88
2023/01/25 08:46:12;;;;;;;28.67;13.83;;;1.50;99.90;;;;;;7727456;28;20199;-87
2023/01/25 08:49:58;;;;;;;28.07;13.23;;;1.50;99.90;;;;;;7727254;28;20187;-88
2023/01/25 08:53:43;;;;;;;27.73;12.77;;;1.50;99.90;;;;;;7718120;28;20267;-88
2023/01/25 08:57:30;;;;;;;27.57;13.10;;;1.50;99.90;;;;;;7715232;28;20184;-88
2023/01/25 09:01:17;;;;;;;31.03;12.37;;;1.50;99.90;;;;;;7703254;28;20659;-88
2023/01/25 09:05:03;;;;;;;24.47;11.40;;;1.50;99.90;;;;;;7702745;28;20212;-87
2023/01/25 09:08:49;;;;;;;27.50;12.30;;;1.50;99.90;;;;;;7702606;28;20181;-88
2023/01/25 09:12:35;;;;;;;25.30;12.50;;;1.40;99.90;;;;;;7703130;28;20204;-89
2023/01/25 09:16:29;;;;;;;27.60;12.53;;;1.50;99.90;;;;;;7702404;28;20196;-88
2023/01/25 09:20:15;;;;;;;34.43;18.33;;;1.50;99.90;;;;;;7702807;28;20641;-87
2023/01/25 09:24:00;;;;;;;28.80;13.13;;;1.50;99.90;;;;;;7702512;28;20322;-88
2023/01/25 09:27:50;;;;;;;59.50;22.80;;;1.40;99.90;;;;;;7701991;28;20189;-89
2023/01/25 09:31:38;;;;;;;35.13;15.33;;;1.50;99.90;;;;;;7702980;28;20212;-88
2023/01/25 09:35:28;;;;;;;28.13;13.63;;;1.40;99.90;;;;;;7702096;28;20243;-88
2023/01/25 09:39:14;;;;;;;29.10;14.20;;;1.50;99.90;;;;;;7693314;28;20208;-87
2023/01/25 09:43:11;;;;;;;83.67;37.27;;;1.30;99.90;;;;;;7672853;29;20236;-88
2023/01/25 09:47:00;;;;;;;30.70;14.57;;;1.30;99.90;;;;;;7690394;28;20196;-89
2023/01/25 09:51:04;;;;;;;27.80;13.67;;;1.30;99.90;;;;;;7684829;28;20197;-89
2023/01/25 09:54:51;;;;;;;28.30;12.33;;;1.40;99.90;;;;;;7697947;28;20263;-88
2023/01/25 09:58:44;;;;;;;23.67;11.70;;;1.40;99.90;;;;;;7701615;28;20208;-88
2023/01/25 10:02:42;;;;;;;29.43;12.77;;;1.40;99.90;;;;;;7701562;28;20705;-88
2023/01/25 10:06:38;;;;;;;25.37;11.73;;;1.50;99.90;;;;;;7701060;28;20195;-87
2023/01/25 10:10:40;;;;;;;28.00;11.93;;;1.50;99.90;;;;;;7701297;28;20176;-88
2023/01/25 10:14:26;;;;;;;26.63;13.03;;;1.50;99.90;;;;;;7718411;28;20665;-87
2023/01/25 10:18:23;;;;;;;28.43;12.37;;;1.50;99.90;;;;;;7700956;28;20216;-88
2023/01/25 10:22:22;;;;;;;29.13;12.90;;;1.60;99.90;;;;;;7701915;28;20193;-89
2023/01/25 10:26:14;;;;;;;26.50;11.67;;;1.60;99.90;;;;;;7721537;28;20187;-89
2023/01/25 10:30:10;;;;;;;25.17;12.00;;;1.60;99.90;;;;;;7738965;28;20251;-87
2023/01/25 10:33:58;;;;;;;32.40;13.67;;;1.60;99.90;;;;;;7736681;28;20232;-88
2023/01/25 10:37:45;;;;;;;32.67;13.50;;;1.70;99.90;;;;;;7719588;28;20195;-87
2023/01/25 10:41:37;;;;;;;26.30;11.73;;;1.60;99.90;;;;;;7701861;28;20571;-87
2023/01/25 10:45:23;;;;;;;30.20;13.30;;;1.60;99.90;;;;;;7701246;28;20670;-88
2023/01/25 10:49:32;;;;;;;28.37;14.13;;;1.60;99.90;;;;;;7717466;28;20819;-88
2023/01/25 10:53:27;;;;;;;30.43;12.90;;;1.60;99.90;;;;;;7691053;28;20576;-88
2023/01/25 10:57:17;;;;;;;27.63;13.13;;;1.60;99.90;;;;;;7699745;28;20807;-88
2023/01/25 11:01:06;;;;;;;37.60;17.97;;;1.60;99.90;;;;;;7684445;28;20192;-89
2023/01/25 11:04:51;;;;;;;40.70;19.70;;;1.60;99.90;;;;;;7713477;28;20259;-88
2023/01/25 11:08:40;;;;;;;29.93;14.70;;;1.60;99.90;;;;;;7697265;28;20188;-89
2023/01/25 11:12:25;;;;;;;27.00;13.03;;;1.60;99.90;;;;;;7699929;28;20212;-88
2023/01/25 11:16:23;;;;;;;29.50;13.03;;;1.60;99.90;;;;;;7699571;28;20701;-89
2023/01/25 11:20:19;;;;;;;29.40;13.27;;;1.60;99.90;;;;;;7716210;28;20173;-88
2023/01/25 11:24:07;;;;;;;24.83;11.80;;;1.60;99.90;;;;;;7722071;28;20665;-87
2023/01/25 11:28:15;;;;;;;23.67;10.83;;;1.70;99.90;;;;;;7727074;28;20184;-89
2023/01/25 11:32:08;;;;;;;26.17;11.27;;;1.60;99.90;;;;;;7709554;28;20324;-89
2023/01/25 11:36:12;;;;;;;24.13;11.13;;;1.70;99.90;;;;;;7706721;28;20209;-88
2023/01/25 11:40:14;;;;;;;24.57;11.80;;;1.70;99.90;;;;;;7702169;28;20248;-88
2023/01/25 11:44:19;;;;;;;27.17;12.83;;;1.70;99.90;;;;;;7698442;28;20208;-88
2023/01/25 11:48:19;;;;;;;27.23;12.77;;;1.70;99.90;;;;;;7672077;29;20279;-88
2023/01/25 11:52:29;;;;;;;24.37;12.47;;;1.70;99.90;;;;;;7696895;28;20200;-88
2023/01/25 11:56:17;;;;;;;24.57;11.60;;;1.70;99.90;;;;;;7698844;28;20275;-87
2023/01/25 12:00:20;;;;;;;26.00;12.10;;;1.60;99.90;;;;;;7698819;28;20192;-89
2023/01/25 12:04:18;;;;;;;24.77;12.03;;;1.70;99.90;;;;;;7698839;28;20200;-89
2023/01/25 12:08:40;;;;;;;23.00;11.43;;;1.70;99.90;;;;;;7715466;28;20184;-88
2023/01/25 12:12:29;;;;;;;26.80;12.60;;;1.70;99.90;;;;;;7698715;28;20266;-88
2023/01/25 12:16:24;;;;;;;27.27;13.20;;;1.70;99.90;;;;;;7697902;28;20224;-90
2023/01/25 12:20:23;;;;;;;24.77;12.37;;;1.70;99.90;;;;;;7698453;28;20570;-89
2023/01/25 12:24:40;;;;;;;27.20;13.40;;;1.70;99.90;;;;;;7698234;28;20210;-89
2023/01/25 12:28:32;;;;;;;27.20;12.53;;;1.70;99.90;;;;;;7697687;28;20215;-88
2023/01/25 12:32:17;;;;;;;25.17;11.67;;;1.60;99.90;;;;;;7700386;28;20208;-89
2023/01/25 12:36:17;;;;;;;23.23;13.00;;;1.60;99.90;;;;;;7704452;28;20665;-89
2023/01/25 12:40:16;;;;;;;24.60;11.13;;;1.60;99.90;;;;;;7721920;28;20160;-89
2023/01/25 12:44:13;;;;;;;23.73;12.07;;;1.60;99.90;;;;;;7722425;28;20206;-89
2023/01/25 12:48:31;;;;;;;24.80;13.40;;;1.50;99.90;;;;;;7704470;28;20242;-90
2023/01/25 12:52:41;;;;;;;77.43;45.67;;;1.50;99.90;;;;;;7700959;28;20255;-89
2023/01/25 12:56:45;;;;;;;33.07;18.50;;;1.50;99.90;;;;;;7704264;28;20177;-90
2023/01/25 13:00:54;;;;;;;264.87;127.70;;;1.50;99.90;;;;;;7703838;28;20606;-90
2023/01/25 13:04:48;;;;;;;63.53;32.73;;;1.50;99.90;;;;;;7703976;28;20195;-89
2023/01/25 13:08:43;;;;;;;29.43;16.07;;;1.50;99.90;;;;;;7720938;28;20188;-88
2023/01/25 13:12:28;;;;;;;26.83;13.87;;;1.60;99.90;;;;;;7703867;28;20597;-89
2023/01/25 13:16:29;;;;;;;47.03;23.07;;;1.60;99.90;;;;;;7703662;28;20224;-90
2023/01/25 13:20:40;;;;;;;32.90;19.13;;;1.50;99.90;;;;;;7704108;28;20218;-88
2023/01/25 13:24:33;;;;;;;34.97;18.30;;;1.50;99.90;;;;;;7703772;28;20240;-90
2023/01/25 13:28:41;;;;;;;40.47;19.60;;;1.40;99.90;;;;;;7721258;28;20216;-89
2023/01/25 13:32:27;;;;;;;33.27;15.97;;;1.30;99.90;;;;;;7704373;28;20213;-89
2023/01/25 13:36:41;;;;;;;30.90;15.17;;;1.30;99.90;;;;;;7705667;28;20212;-89
2023/01/25 13:40:31;;;;;;;47.37;19.83;;;1.20;99.90;;;;;;7704493;28;20726;-89
2023/01/25 13:44:27;;;;;;;37.17;17.57;;;1.30;99.90;;;;;;7702205;28;20208;-88
2023/01/25 13:48:18;;;;;;;35.03;17.10;;;1.40;99.90;;;;;;7720078;28;20192;-88
2023/01/25 13:52:04;;;;;;;35.50;16.80;;;1.50;99.90;;;;;;7704181;28;20211;-89
2023/01/25 13:55:52;;;;;;;35.67;16.93;;;1.40;99.90;;;;;;7701866;28;20204;-89
2023/01/25 13:59:38;;;;;;;34.17;16.87;;;1.40;99.90;;;;;;7701626;28;20220;-89
2023/01/25 14:03:46;;;;;;;30.80;14.70;;;1.50;99.90;;;;;;7701910;28;20251;-88
2023/01/25 14:07:33;;;;;;;32.77;15.90;;;1.50;99.90;;;;;;7710327;28;20260;-88
2023/01/25 14:11:31;;;;;;;32.40;16.00;;;1.50;99.90;;;;;;7705864;28;20690;-87
2023/01/25 14:15:27;;;;;;;28.30;14.53;;;1.40;99.90;;;;;;7671725;29;20720;-88
2023/01/25 14:19:23;;;;;;;29.00;14.07;;;1.40;99.90;;;;;;7694733;28;20191;-87
2023/01/25 14:23:24;;;;;;;29.33;14.47;;;1.50;99.90;;;;;;7695848;28;20192;-87
2023/01/25 14:27:15;;;;;;;30.70;14.60;;;1.50;99.90;;;;;;7691584;28;20200;-88
2023/01/25 14:50:39;;;;;;;25.60;13.20;;;1.50;99.90;;;;;;9088093;23;20257;-90
2023/01/25 14:54:28;;;;;;;27.50;13.63;;;1.50;99.90;;;;;;7736871;28;20196;-90
2023/01/25 14:58:21;;;;;;;27.00;12.83;;;1.50;99.90;;;;;;7740368;28;20176;-91
2023/01/25 15:18:49;;;;;;;34.00;15.10;;;1.60;99.90;;;;;;7714487;28;20302;-87
2023/01/25 15:22:35;;;;;;;29.67;13.83;;;1.60;99.90;;;;;;7699085;28;20205;-87
2023/01/25 15:26:21;;;;;;;32.70;14.70;;;1.60;99.90;;;;;;7688487;28;20242;-87
2023/01/25 15:34:03;;;;;;;35.77;15.50;;;1.60;99.90;;;;;;8163012;23;20241;-90
2023/01/25 15:37:49;;;;;;;37.33;16.27;;;1.70;99.90;;;;;;7750905;28;20209;-90
2023/01/25 15:41:35;;;;;;;35.23;16.27;;;1.60;99.90;;;;;;7787084;28;20187;-90
2023/01/25 15:45:21;;;;;;;29.37;14.27;;;1.60;99.90;;;;;;7759071;28;20723;-90
2023/01/25 15:49:07;;;;;;;36.47;17.03;;;1.60;99.90;;;;;;7756796;28;20230;-90
2023/01/25 15:52:53;;;;;;;33.63;15.33;;;1.60;99.90;;;;;;7757924;28;20190;-89
2023/01/25 15:56:41;;;;;;;39.00;16.87;;;1.60;99.90;;;;;;7757149;28;20227;-90
2023/01/25 16:00:27;;;;;;;45.13;20.63;;;1.60;99.90;;;;;;7757787;28;20237;-90
2023/01/25 16:04:13;;;;;;;46.73;20.13;;;1.60;99.90;;;;;;7757527;28;20183;-90
2023/01/25 16:07:59;;;;;;;35.83;17.20;;;1.60;99.90;;;;;;7756666;28;20260;-90
2023/01/25 16:11:51;;;;;;;34.37;16.23;;;1.50;99.90;;;;;;7755989;28;20191;-85
2023/01/25 16:15:38;;;;;;;41.67;23.23;;;1.80;99.90;;;;;;7739136;28;20545;-88
2023/01/25 16:19:31;;;;;;;36.77;17.83;;;2.30;99.90;;;;;;7744532;28;20677;-89
2023/01/25 16:23:17;;;;;;;33.93;16.70;;;2.70;99.90;;;;;;7767149;28;20187;-89
2023/01/25 16:27:03;;;;;;;36.27;17.33;;;2.70;99.90;;;;;;7758741;28;20234;-89
2023/01/25 16:30:51;;;;;;;38.20;17.57;;;3.00;99.90;;;;;;7752110;28;20266;-89
2023/01/25 16:34:56;;;;;;;32.20;16.13;;;3.20;99.90;;;;;;7753002;28;20604;-90
2023/01/25 16:38:43;;;;;;;33.37;15.67;;;3.20;99.90;;;;;;7753158;28;20746;-89
2023/01/25 16:42:29;;;;;;;34.90;16.00;;;3.30;99.90;;;;;;7758309;28;20187;-91
2023/01/25 16:46:21;;;;;;;35.80;17.67;;;3.40;99.90;;;;;;7756752;28;20198;-88
2023/01/25 16:50:15;;;;;;;48.63;19.83;;;3.40;99.90;;;;;;7763274;28;20334;-89
2023/01/25 16:54:00;;;;;;;44.13;20.93;;;3.40;99.90;;;;;;7752768;28;20223;-89
2023/01/25 16:57:49;;;;;;;46.70;21.87;;;3.30;99.90;;;;;;7764216;28;20282;-90
2023/01/25 17:01:37;;;;;;;52.33;23.40;;;3.40;99.90;;;;;;7747317;28;20196;-90
2023/01/25 17:05:22;;;;;;;46.60;21.43;;;3.40;99.90;;;;;;7771653;28;20191;-90
2023/01/25 17:09:15;;;;;;;46.63;20.87;;;3.40;99.90;;;;;;7750482;28;20215;-89
2023/01/25 17:13:01;;;;;;;47.70;21.20;;;3.30;99.90;;;;;;7754646;28;20282;-89
2023/01/25 17:16:50;;;;;;;50.10;21.80;;;3.40;99.90;;;;;;7753342;28;20183;-89
2023/01/25 17:20:35;;;;;;;52.43;23.63;;;3.30;99.90;;;;;;7758970;28;20690;-89
2023/01/25 17:24:21;;;;;;;47.83;21.80;;;3.40;99.90;;;;;;7759419;28;20574;-89
2023/01/25 17:28:06;;;;;;;45.73;19.77;;;3.30;99.90;;;;;;7755977;28;20718;-88
2023/01/25 17:31:52;;;;;;;44.47;20.90;;;3.30;99.90;;;;;;7754479;28;20195;-86
2023/01/25 17:35:45;;;;;;;49.40;21.07;;;3.20;99.90;;;;;;7758286;28;20210;-90
2023/01/25 17:39:31;;;;;;;51.07;21.30;;;3.20;99.90;;;;;;7761838;28;20564;-90
2023/01/25 17:43:17;;;;;;;62.57;23.90;;;3.30;99.90;;;;;;7755454;28;20559;-89
2023/01/25 17:47:03;;;;;;;51.37;22.37;;;3.30;99.90;;;;;;7760935;28;20183;-89
2023/01/25 17:51:02;;;;;;;41.33;20.60;;;3.20;99.90;;;;;;7757709;28;20200;-89
2023/01/25 17:54:48;;;;;;;52.80;22.13;;;3.20;99.90;;;;;;7756298;28;20211;-89
2023/01/25 17:58:38;;;;;;;43.07;20.47;;;3.20;99.90;;;;;;7756111;28;20214;-90
2023/01/25 18:02:34;;;;;;;40.30;21.50;;;3.10;99.90;;;;;;7769529;28;20183;-90
2023/01/25 18:06:23;;;;;;;43.67;23.03;;;3.20;99.90;;;;;;7759306;28;20190;-89
2023/01/25 18:10:10;;;;;;;42.00;21.00;;;3.10;99.90;;;;;;7761310;28;20211;-90
2023/01/25 18:14:08;;;;;;;45.40;20.67;;;3.00;99.90;;;;;;7756780;28;20218;-91
2023/01/25 18:17:58;;;;;;;47.77;24.97;;;3.00;99.90;;;;;;7758041;28;20241;-90
2023/01/25 18:22:04;;;;;;;61.90;28.03;;;3.00;99.90;;;;;;7756720;28;20234;-89
2023/01/25 18:25:54;;;;;;;58.00;28.80;;;3.00;99.90;;;;;;7759973;28;20202;-89
2023/01/25 18:30:08;;;;;;;81.17;37.97;;;2.90;99.90;;;;;;7761052;28;20208;-90
2023/01/25 18:33:54;;;;;;;67.03;29.43;;;2.90;99.90;;;;;;7756837;28;20219;-90
2023/01/25 18:37:44;;;;;;;60.83;27.90;;;2.90;99.90;;;;;;7748178;28;20214;-89
2023/01/25 18:41:31;;;;;;;61.40;27.80;;;2.90;99.90;;;;;;7755609;28;20184;-91
2023/01/25 18:45:18;;;;;;;60.53;28.23;;;2.90;99.90;;;;;;7777432;28;20187;-89
2023/01/25 18:49:04;;;;;;;63.17;28.80;;;2.80;99.90;;;;;;7769631;28;20207;-90
2023/01/25 18:52:50;;;;;;;64.13;28.83;;;2.80;99.90;;;;;;7773754;28;20190;-89
2023/01/25 18:56:59;;;;;;;64.90;31.43;;;3.00;99.90;;;;;;7771924;28;20187;-89
2023/01/25 19:01:17;;;;;;;57.90;28.53;;;2.80;99.90;;;;;;7778686;28;20186;-89
2023/01/25 19:05:02;;;;;;;64.13;30.70;;;2.80;99.90;;;;;;7761310;28;20211;-89
2023/01/25 19:08:52;;;;;;;52.83;24.57;;;2.80;99.90;;;;;;7761304;28;20203;-89
2023/01/25 19:12:37;;;;;;;51.70;25.27;;;2.80;99.90;;;;;;7778688;28;20176;-89
2023/01/25 19:16:23;;;;;;;58.10;25.40;;;2.70;99.90;;;;;;7760891;28;20207;-89
2023/01/25 19:20:15;;;;;;;54.77;27.50;;;2.80;99.90;;;;;;7760875;28;20199;-88
2023/01/25 19:24:01;;;;;;;47.83;22.70;;;2.70;99.90;;;;;;7732655;28;20815;-89
2023/01/25 19:27:57;;;;;;;46.63;24.03;;;2.80;99.90;;;;;;7751784;28;20278;-89
2023/01/25 19:31:42;;;;;;;51.23;24.27;;;2.70;99.90;;;;;;7755482;28;20238;-89
2023/01/25 19:35:28;;;;;;;50.50;24.67;;;2.70;99.90;;;;;;7760038;28;20207;-89
2023/01/25 19:39:20;;;;;;;52.07;25.07;;;2.70;99.90;;;;;;7773747;28;20191;-90
2023/01/25 19:43:11;;;;;;;54.93;26.73;;;2.70;99.90;;;;;;7761253;28;20175;-89
2023/01/25 19:46:58;;;;;;;53.33;28.33;;;2.70;99.90;;;;;;7756037;28;20675;-90
2023/01/25 19:50:43;;;;;;;62.47;28.10;;;2.60;99.90;;;;;;7757908;28;20171;-90
2023/01/25 19:54:29;;;;;;;53.00;25.93;;;2.70;99.90;;;;;;7757976;28;20302;-90
2023/01/25 19:58:15;;;;;;;50.00;25.73;;;2.50;99.90;;;;;;7756825;28;20199;-90
2023/01/25 20:02:00;;;;;;;53.73;26.87;;;2.60;99.90;;;;;;7760609;28;20655;-89
2023/01/25 20:05:56;;;;;;;49.43;24.67;;;2.60;99.90;;;;;;7781479;28;20608;-90
2023/01/25 20:09:41;;;;;;;52.10;24.60;;;2.60;99.90;;;;;;7756422;28;20224;-89
2023/01/25 20:13:28;;;;;;;49.03;22.97;;;2.50;99.90;;;;;;7758694;28;20208;-90
2023/01/25 20:17:13;;;;;;;50.70;25.87;;;2.50;99.90;;;;;;7744593;28;20195;-88
2023/01/25 20:21:04;;;;;;;51.03;25.20;;;2.50;99.90;;;;;;7748003;28;20275;-91
2023/01/25 20:24:50;;;;;;;53.63;24.57;;;2.60;99.90;;;;;;7756227;28;20195;-90
2023/01/25 20:28:36;;;;;;;52.20;25.30;;;2.50;99.90;;;;;;7758299;28;20260;-89
2023/01/25 20:32:22;;;;;;;51.73;24.10;;;2.50;99.90;;;;;;7757309;28;20214;-87
2023/01/25 20:36:07;;;;;;;48.83;24.13;;;2.50;99.90;;;;;;7756698;28;20207;-86
2023/01/25 20:39:53;;;;;;;51.70;24.97;;;2.50;99.90;;;;;;7750444;28;20239;-88